Time;durP1;ratioP1;P1;durP2;ratioP2;P2;SDS_P1;SDS_P2;PMS_P1;PMS_P2;Temp;Humidity;BMP_temperature;BMP_pressure;BME280_temperature;BME280_humidity;BME280_pressure;Samples;Min_cycle;Max_cycle;Signal;HPM_P1;HPM_P2
2021/12/09 00:02:04;;;;;;;;;2.50;2.50;;;;;;;;5115439;27;45372;-82
2021/12/09 00:04:31;;;;;;;;;2.50;2.50;;;;;;;;5115439;27;45371;-82
2021/12/09 00:06:58;;;;;;;;;3.00;2.75;;;;;;;;5096305;27;45358;-84
2021/12/09 00:09:24;;;;;;;;;2.00;2.00;;;;;;;;5096448;27;47191;-84
2021/12/09 00:11:50;;;;;;;;;2.00;2.00;;;;;;;;5096671;27;45922;-84
2021/12/09 00:14:26;;;;;;;;;5.00;2.00;;;;;;;;5115249;27;45448;-84
2021/12/09 00:16:53;;;;;;;;;2.75;2.75;;;;;;;;5096946;27;45854;-84
2021/12/09 00:19:19;;;;;;;;;2.50;2.00;;;;;;;;5114972;27;45464;-82
2021/12/09 00:21:44;;;;;;;;;1.00;1.00;;;;;;;;5096156;27;46172;-81
2021/12/09 00:24:10;;;;;;;;;2.67;2.00;;;;;;;;5096731;27;45527;-82
2021/12/09 00:26:35;;;;;;;;;1.25;1.25;;;;;;;;5115119;27;45380;-81
2021/12/09 00:29:00;;;;;;;;;2.00;2.00;;;;;;;;5114842;27;45428;-83
2021/12/09 00:31:25;;;;;;;;;1.00;1.00;;;;;;;;5096555;27;45336;-84
2021/12/09 00:33:51;;;;;;;;;1.33;1.33;;;;;;;;5096413;27;45466;-82
2021/12/09 00:36:26;;;;;;;;;1.00;1.00;;;;;;;;5114541;27;45411;-84
2021/12/09 00:38:53;;;;;;;;;2.00;1.00;;;;;;;;5096227;27;46512;-84
2021/12/09 00:41:18;;;;;;;;;1.00;1.00;;;;;;;;5096035;27;45617;-81
2021/12/09 00:43:43;;;;;;;;;1.00;1.00;;;;;;;;5114880;27;45324;-84
2021/12/09 00:46:09;;;;;;;;;1.00;0.25;;;;;;;;5114866;27;45310;-82
2021/12/09 00:48:34;;;;;;;;;3.25;2.00;;;;;;;;5095733;27;47501;-81
2021/12/09 00:51:00;;;;;;;;;1.00;1.00;;;;;;;;5113588;27;45357;-84
2021/12/09 00:53:26;;;;;;;;;2.00;1.00;;;;;;;;5114665;27;45433;-85
2021/12/09 00:55:52;;;;;;;;;2.25;1.75;;;;;;;;5114707;27;45472;-81
2021/12/09 00:58:17;;;;;;;;;2.75;1.50;;;;;;;;5114642;27;45367;-81
2021/12/09 01:00:42;;;;;;;;;0.50;0.00;;;;;;;;5095902;27;46349;-85
2021/12/09 01:03:08;;;;;;;;;1.00;1.00;;;;;;;;5096190;27;45494;-82
2021/12/09 01:05:33;;;;;;;;;1.00;1.00;;;;;;;;5114126;27;45368;-83
2021/12/09 01:07:58;;;;;;;;;2.00;1.00;;;;;;;;5095770;27;48320;-83
2021/12/09 01:10:24;;;;;;;;;2.00;2.00;;;;;;;;5095496;27;45606;-83
2021/12/09 01:12:49;;;;;;;;;3.00;2.75;;;;;;;;5115004;27;45640;-84
2021/12/09 01:15:15;;;;;;;;;1.00;1.00;;;;;;;;5114461;27;45469;-82
2021/12/09 01:17:40;;;;;;;;;1.00;1.00;;;;;;;;5114180;27;46403;-85
2021/12/09 01:20:07;;;;;;;;;2.00;1.33;;;;;;;;5114314;27;45483;-84
2021/12/09 01:22:42;;;;;;;;;3.25;2.00;;;;;;;;5114006;27;45294;-81
2021/12/09 01:25:09;;;;;;;;;1.25;1.00;;;;;;;;5114252;27;45443;-81
2021/12/09 01:27:37;;;;;;;;;1.00;0.75;;;;;;;;5095396;27;47961;-81
2021/12/09 01:30:09;;;;;;;;;1.00;1.00;;;;;;;;5095596;27;45795;-84
2021/12/09 01:32:34;;;;;;;;;1.00;0.00;;;;;;;;5114147;27;45546;-82
2021/12/09 01:35:00;;;;;;;;;2.00;2.00;;;;;;;;5114085;27;45345;-84
2021/12/09 01:37:25;;;;;;;;;2.00;1.33;;;;;;;;5113529;27;45723;-83
2021/12/09 01:39:50;;;;;;;;;1.00;1.00;;;;;;;;5095344;27;45429;-83
2021/12/09 01:42:17;;;;;;;;;1.00;1.00;;;;;;;;5113959;27;45452;-81
2021/12/09 01:44:42;;;;;;;;;1.00;1.00;;;;;;;;5113832;27;45456;-84
2021/12/09 01:47:07;;;;;;;;;2.00;2.00;;;;;;;;5113728;27;45482;-82
2021/12/09 01:49:32;;;;;;;;;2.67;1.00;;;;;;;;5113380;27;45383;-81
2021/12/09 01:51:58;;;;;;;;;1.00;1.00;;;;;;;;5113895;27;45371;-80
2021/12/09 01:54:24;;;;;;;;;1.33;1.00;;;;;;;;5113963;27;45433;-81
2021/12/09 01:56:49;;;;;;;;;2.00;2.00;;;;;;;;5113507;27;45595;-82
2021/12/09 01:59:15;;;;;;;;;0.50;0.25;;;;;;;;5113873;27;45721;-81
2021/12/09 02:01:40;;;;;;;;;1.25;1.25;;;;;;;;5115698;27;45482;-83
2021/12/09 02:04:07;;;;;;;;;1.50;1.25;;;;;;;;5117170;27;45286;-81
2021/12/09 02:06:33;;;;;;;;;1.00;1.00;;;;;;;;5116730;27;45474;-81
2021/12/09 02:08:58;;;;;;;;;2.25;1.00;;;;;;;;5117572;27;45426;-81
2021/12/09 02:11:24;;;;;;;;;3.00;2.00;;;;;;;;5117312;27;45494;-82
2021/12/09 02:13:54;;;;;;;;;1.25;1.25;;;;;;;;5116957;27;45413;-80
2021/12/09 02:16:20;;;;;;;;;2.00;1.00;;;;;;;;5116950;27;46509;-82
2021/12/09 02:18:45;;;;;;;;;1.25;1.00;;;;;;;;5117051;27;45731;-81
2021/12/09 02:21:15;;;;;;;;;1.00;1.00;;;;;;;;5116979;27;45683;-83
2021/12/09 02:23:42;;;;;;;;;1.25;1.00;;;;;;;;5117219;27;45544;-81
2021/12/09 02:26:08;;;;;;;;;1.00;1.00;;;;;;;;5116912;27;45675;-82
2021/12/09 02:28:33;;;;;;;;;1.25;1.00;;;;;;;;5098173;27;45362;-83
2021/12/09 02:30:59;;;;;;;;;1.00;1.00;;;;;;;;5116909;27;45273;-82
2021/12/09 02:33:24;;;;;;;;;0.00;0.00;;;;;;;;5098398;27;45375;-81
2021/12/09 02:35:49;;;;;;;;;1.00;1.00;;;;;;;;5116437;27;45491;-81
2021/12/09 02:38:14;;;;;;;;;1.00;1.00;;;;;;;;5116698;27;45220;-84
2021/12/09 02:40:40;;;;;;;;;1.00;1.00;;;;;;;;5116738;27;45466;-81
2021/12/09 02:43:08;;;;;;;;;1.00;1.00;;;;;;;;5116706;27;45365;-83
2021/12/09 02:45:33;;;;;;;;;1.00;0.00;;;;;;;;5116530;27;46309;-84
2021/12/09 02:47:58;;;;;;;;;4.33;2.00;;;;;;;;5116393;27;45503;-81
2021/12/09 02:50:23;;;;;;;;;1.00;1.00;;;;;;;;5094260;27;45546;-84
2021/12/09 02:52:49;;;;;;;;;3.00;1.00;;;;;;;;5096144;27;45508;-84
2021/12/09 02:55:14;;;;;;;;;0.00;0.00;;;;;;;;5095761;27;45482;-81
2021/12/09 02:57:39;;;;;;;;;1.00;1.00;;;;;;;;5095582;27;45491;-82
2021/12/09 03:00:06;;;;;;;;;1.67;1.67;;;;;;;;5096003;27;45427;-82
2021/12/09 03:02:31;;;;;;;;;0.00;0.00;;;;;;;;5095928;27;45532;-81
2021/12/09 03:05:02;;;;;;;;;1.00;1.00;;;;;;;;5095496;27;45437;-81
2021/12/09 03:07:31;;;;;;;;;1.00;1.00;;;;;;;;5095364;27;45378;-81
2021/12/09 03:09:59;;;;;;;;;0.25;0.00;;;;;;;;5095459;27;45528;-81
2021/12/09 03:12:32;;;;;;;;;1.00;1.00;;;;;;;;5093640;27;45356;-81
2021/12/09 03:14:59;;;;;;;;;1.00;0.25;;;;;;;;5093894;27;48252;-81
2021/12/09 03:17:24;;;;;;;;;0.00;0.00;;;;;;;;5094121;27;46013;-85
2021/12/09 03:19:51;;;;;;;;;0.75;0.75;;;;;;;;5095484;27;45320;-84
2021/12/09 03:22:16;;;;;;;;;1.00;1.00;;;;;;;;5093445;27;45418;-81
2021/12/09 03:24:41;;;;;;;;;0.00;0.00;;;;;;;;5095408;27;46448;-81
2021/12/09 03:27:07;;;;;;;;;1.00;1.00;;;;;;;;5095284;27;45280;-82
2021/12/09 03:29:33;;;;;;;;;1.00;1.00;;;;;;;;5095193;27;45501;-84
2021/12/09 03:31:59;;;;;;;;;1.00;1.00;;;;;;;;5095393;27;45293;-83
2021/12/09 03:34:27;;;;;;;;;1.25;1.25;;;;;;;;5093516;27;46649;-85
2021/12/09 03:36:52;;;;;;;;;0.00;0.00;;;;;;;;5094687;27;45780;-81
2021/12/09 03:39:19;;;;;;;;;0.00;0.00;;;;;;;;5095295;27;45473;-81
2021/12/09 03:41:46;;;;;;;;;2.00;1.00;;;;;;;;5095110;27;45578;-85
2021/12/09 03:44:11;;;;;;;;;1.00;1.00;;;;;;;;5094932;27;46531;-83
2021/12/09 03:46:36;;;;;;;;;1.00;1.00;;;;;;;;5094967;27;45376;-81
2021/12/09 03:49:03;;;;;;;;;1.00;0.67;;;;;;;;5093275;27;45375;-84
2021/12/09 03:51:28;;;;;;;;;0.00;0.00;;;;;;;;5093192;27;45468;-84
2021/12/09 03:53:53;;;;;;;;;1.00;1.00;;;;;;;;5093453;27;47175;-84
2021/12/09 03:56:19;;;;;;;;;1.00;1.00;;;;;;;;5093564;27;46007;-84
2021/12/09 03:58:44;;;;;;;;;0.00;0.00;;;;;;;;5095120;27;45367;-84
2021/12/09 04:01:09;;;;;;;;;1.00;1.00;;;;;;;;5094896;27;45458;-82
2021/12/09 04:03:34;;;;;;;;;0.75;0.75;;;;;;;;5093290;27;46215;-81
2021/12/09 04:05:59;;;;;;;;;1.67;1.00;;;;;;;;5092904;27;45496;-82
2021/12/09 04:08:25;;;;;;;;;1.00;1.00;;;;;;;;5094621;27;45407;-82
2021/12/09 04:10:50;;;;;;;;;1.00;1.00;;;;;;;;5094650;27;45382;-81
2021/12/09 04:13:16;;;;;;;;;1.25;1.25;;;;;;;;5094462;27;46616;-81
2021/12/09 04:15:41;;;;;;;;;0.75;0.00;;;;;;;;5095058;27;45591;-81
2021/12/09 04:18:06;;;;;;;;;1.00;1.00;;;;;;;;5094626;27;45433;-81
2021/12/09 04:20:32;;;;;;;;;0.00;0.00;;;;;;;;5092633;27;45451;-81
2021/12/09 04:22:57;;;;;;;;;1.00;1.00;;;;;;;;5094386;27;45486;-81
2021/12/09 04:25:23;;;;;;;;;2.00;1.33;;;;;;;;5093606;27;45755;-81
2021/12/09 04:27:50;;;;;;;;;1.25;1.00;;;;;;;;5094540;27;45317;-81
2021/12/09 04:30:16;;;;;;;;;4.00;2.00;;;;;;;;5094666;27;45599;-85
2021/12/09 04:32:42;;;;;;;;;2.00;2.00;;;;;;;;5094250;27;46219;-82
2021/12/09 04:35:08;;;;;;;;;1.75;1.75;;;;;;;;5093900;27;45306;-81
2021/12/09 04:37:33;;;;;;;;;1.00;1.00;;;;;;;;5092883;27;45389;-83
2021/12/09 04:40:00;;;;;;;;;2.00;2.00;;;;;;;;5092908;27;45635;-85
2021/12/09 04:42:25;;;;;;;;;3.00;2.00;;;;;;;;5093759;27;45517;-81
2021/12/09 04:44:51;;;;;;;;;2.67;2.67;;;;;;;;5092284;27;45389;-85
2021/12/09 04:47:16;;;;;;;;;2.00;1.00;;;;;;;;5093043;27;45704;-84
2021/12/09 04:49:41;;;;;;;;;3.00;2.00;;;;;;;;5105433;27;45344;-81
2021/12/09 04:52:07;;;;;;;;;2.00;1.00;;;;;;;;5114327;27;46536;-83
2021/12/09 04:54:33;;;;;;;;;1.00;1.00;;;;;;;;5114421;27;45781;-84
2021/12/09 04:56:58;;;;;;;;;3.25;1.25;;;;;;;;5114874;27;45561;-82
2021/12/09 04:59:23;;;;;;;;;2.00;2.00;;;;;;;;5096002;27;45635;-84
2021/12/09 05:01:50;;;;;;;;;5.00;3.00;;;;;;;;5114136;27;47411;-83
2021/12/09 05:04:16;;;;;;;;;2.00;1.25;;;;;;;;5114445;27;45699;-85
2021/12/09 05:06:41;;;;;;;;;4.00;2.75;;;;;;;;5095677;27;45348;-81
2021/12/09 05:09:11;;;;;;;;;2.67;2.67;;;;;;;;5095949;27;45522;-84
2021/12/09 05:14:02;;;;;;;;;2.25;2.25;;;;;;;;5114391;27;45338;-84
2021/12/09 05:16:27;;;;;;;;;2.00;2.00;;;;;;;;5114847;27;45636;-81
2021/12/09 05:18:58;;;;;;;;;2.50;2.00;;;;;;;;5114179;27;45399;-83
2021/12/09 05:21:24;;;;;;;;;3.00;2.75;;;;;;;;5095193;27;47511;-81
2021/12/09 05:23:49;;;;;;;;;4.50;3.00;;;;;;;;5095897;27;45977;-84
2021/12/09 05:26:17;;;;;;;;;4.50;4.50;;;;;;;;5095800;27;45353;-82
2021/12/09 05:28:44;;;;;;;;;2.25;2.00;;;;;;;;5095547;27;45464;-82
2021/12/09 05:33:53;;;;;;;;;2.50;2.50;;;;;;;;5113947;27;45758;-81
2021/12/09 05:36:19;;;;;;;;;3.25;3.25;;;;;;;;5115396;27;45452;-85
2021/12/09 05:38:44;;;;;;;;;4.50;4.50;;;;;;;;5117769;27;45418;-84
2021/12/09 05:41:09;;;;;;;;;4.50;4.50;;;;;;;;5117922;27;45538;-82
2021/12/09 05:43:35;;;;;;;;;3.67;3.33;;;;;;;;5099048;27;45663;-82
2021/12/09 05:46:01;;;;;;;;;5.75;5.75;;;;;;;;5117435;27;45393;-81
2021/12/09 05:48:26;;;;;;;;;5.25;3.75;;;;;;;;5117616;27;45540;-82
2021/12/09 05:50:52;;;;;;;;;5.00;5.00;;;;;;;;5116330;27;46997;-82
2021/12/09 05:53:17;;;;;;;;;5.00;5.00;;;;;;;;5117899;27;45685;-83
2021/12/09 05:55:44;;;;;;;;;5.75;4.50;;;;;;;;5117517;27;45400;-82
2021/12/09 05:58:13;;;;;;;;;5.50;5.50;;;;;;;;5098765;27;45532;-85
2021/12/09 06:00:39;;;;;;;;;4.75;4.00;;;;;;;;5098594;27;47603;-84
2021/12/09 06:03:04;;;;;;;;;5.00;4.00;;;;;;;;5098684;27;45603;-82
2021/12/09 06:05:30;;;;;;;;;6.00;6.00;;;;;;;;5117160;27;45261;-82
2021/12/09 06:07:55;;;;;;;;;5.00;4.33;;;;;;;;5116860;27;45406;-83
2021/12/09 06:10:21;;;;;;;;;6.00;5.00;;;;;;;;5116810;27;45428;-81
2021/12/09 06:12:46;;;;;;;;;5.00;5.00;;;;;;;;5098373;27;45349;-83
2021/12/09 06:15:12;;;;;;;;;3.25;3.25;;;;;;;;5098610;27;45451;-81
2021/12/09 06:17:37;;;;;;;;;6.33;5.00;;;;;;;;5116996;27;45473;-85
2021/12/09 06:20:03;;;;;;;;;5.00;3.00;;;;;;;;5097777;27;47657;-83
2021/12/09 06:22:28;;;;;;;;;5.00;5.00;;;;;;;;5116344;27;45232;-80
2021/12/09 06:24:53;;;;;;;;;6.00;5.67;;;;;;;;5117026;27;45558;-82
2021/12/09 06:27:18;;;;;;;;;5.00;5.00;;;;;;;;5098093;27;45270;-83
2021/12/09 06:29:43;;;;;;;;;8.50;7.25;;;;;;;;5098014;27;48079;-84
2021/12/09 06:32:09;;;;;;;;;5.00;4.67;;;;;;;;5116791;27;45697;-81
2021/12/09 06:34:34;;;;;;;;;6.75;6.75;;;;;;;;5117006;27;45418;-84
2021/12/09 06:36:59;;;;;;;;;4.00;3.33;;;;;;;;5116605;27;45559;-82
2021/12/09 06:39:24;;;;;;;;;4.33;4.33;;;;;;;;5098169;27;48037;-81
2021/12/09 06:41:50;;;;;;;;;5.67;5.00;;;;;;;;5116616;27;45341;-83
2021/12/09 06:44:15;;;;;;;;;6.00;5.00;;;;;;;;5116841;27;45484;-83
2021/12/09 06:46:40;;;;;;;;;6.00;6.00;;;;;;;;5098039;27;45293;-84
2021/12/09 06:49:05;;;;;;;;;5.00;5.00;;;;;;;;5115537;27;46835;-82
2021/12/09 06:51:30;;;;;;;;;6.00;5.67;;;;;;;;5097268;27;45456;-84
2021/12/09 06:53:56;;;;;;;;;7.33;7.33;;;;;;;;5097995;27;45464;-82
2021/12/09 06:56:22;;;;;;;;;7.50;7.50;;;;;;;;5116549;27;45595;-81
2021/12/09 06:58:47;;;;;;;;;9.00;7.25;;;;;;;;5116361;27;45662;-81
2021/12/09 07:01:12;;;;;;;;;9.67;8.00;;;;;;;;5116431;27;45462;-85
2021/12/09 07:03:40;;;;;;;;;8.00;8.00;;;;;;;;5116721;27;45516;-84
2021/12/09 07:06:08;;;;;;;;;7.75;6.00;;;;;;;;5097382;27;45479;-82
2021/12/09 07:08:35;;;;;;;;;6.25;6.00;;;;;;;;5116183;27;45473;-84
2021/12/09 07:11:01;;;;;;;;;6.75;6.00;;;;;;;;5097752;27;45372;-84
2021/12/09 07:13:26;;;;;;;;;6.00;6.00;;;;;;;;5097681;27;44758;-82
2021/12/09 07:15:51;;;;;;;;;5.33;5.33;;;;;;;;5116321;27;45337;-85
2021/12/09 07:18:20;;;;;;;;;9.00;8.00;;;;;;;;5115878;27;45437;-81
2021/12/09 07:20:46;;;;;;;;;7.00;6.50;;;;;;;;5115510;27;45262;-84
2021/12/09 07:23:11;;;;;;;;;5.67;5.00;;;;;;;;5116119;27;45410;-81
2021/12/09 07:25:38;;;;;;;;;9.00;8.67;;;;;;;;5116656;27;45569;-81
2021/12/09 07:28:03;;;;;;;;;10.50;8.50;;;;;;;;5097322;27;47689;-84
2021/12/09 07:30:28;;;;;;;;;7.33;6.67;;;;;;;;5115919;27;45461;-82
2021/12/09 07:32:54;;;;;;;;;7.33;7.33;;;;;;;;5116022;27;45357;-81
2021/12/09 07:35:19;;;;;;;;;7.25;7.25;;;;;;;;5115588;27;45975;-83
2021/12/09 07:37:44;;;;;;;;;10.00;8.67;;;;;;;;5115688;27;46264;-83
2021/12/09 07:40:11;;;;;;;;;9.25;6.50;;;;;;;;5115529;27;45474;-84
2021/12/09 07:42:37;;;;;;;;;7.25;6.50;;;;;;;;5115846;27;45399;-81
2021/12/09 07:45:04;;;;;;;;;6.50;6.00;;;;;;;;5115649;27;45642;-82
2021/12/09 07:47:29;;;;;;;;;6.50;6.00;;;;;;;;5115614;27;46432;-84
2021/12/09 07:49:54;;;;;;;;;7.00;7.00;;;;;;;;5115166;27;45279;-84
2021/12/09 07:52:19;;;;;;;;;6.33;6.00;;;;;;;;5115602;27;45361;-81
2021/12/09 07:54:45;;;;;;;;;5.67;5.67;;;;;;;;5096833;27;45286;-84
2021/12/09 07:57:10;;;;;;;;;7.00;7.00;;;;;;;;5115213;27;46223;-84
2021/12/09 07:59:35;;;;;;;;;9.67;8.67;;;;;;;;5115301;27;45548;-83
2021/12/09 08:02:00;;;;;;;;;6.00;6.00;;;;;;;;5115623;27;45377;-84
2021/12/09 08:04:25;;;;;;;;;8.67;8.00;;;;;;;;5115653;27;45276;-83
2021/12/09 08:06:50;;;;;;;;;8.00;7.33;;;;;;;;5114887;27;45490;-84
2021/12/09 08:09:16;;;;;;;;;7.33;6.67;;;;;;;;5096595;27;45884;-82
2021/12/09 08:11:43;;;;;;;;;8.50;6.50;;;;;;;;5115255;27;45662;-81
2021/12/09 08:14:12;;;;;;;;;7.25;7.25;;;;;;;;5115430;27;45393;-81
2021/12/09 08:16:38;;;;;;;;;8.50;8.50;;;;;;;;5115168;27;45434;-84
2021/12/09 08:19:07;;;;;;;;;6.75;6.50;;;;;;;;5115498;27;45923;-81
2021/12/09 08:21:35;;;;;;;;;10.00;8.00;;;;;;;;5114976;27;45281;-82
2021/12/09 08:24:00;;;;;;;;;9.00;7.25;;;;;;;;5115097;27;45299;-81
2021/12/09 08:26:25;;;;;;;;;8.33;7.33;;;;;;;;5096512;27;47091;-83
2021/12/09 08:28:51;;;;;;;;;9.67;9.00;;;;;;;;5096366;27;45478;-82
2021/12/09 08:31:16;;;;;;;;;9.33;7.00;;;;;;;;5115181;27;45377;-81
2021/12/09 08:33:41;;;;;;;;;8.33;5.67;;;;;;;;5096307;27;45405;-84
2021/12/09 08:36:07;;;;;;;;;6.67;6.00;;;;;;;;5095821;27;47239;-82
2021/12/09 08:38:32;;;;;;;;;11.25;9.00;;;;;;;;5095997;27;45386;-84
2021/12/09 08:40:57;;;;;;;;;6.67;6.67;;;;;;;;5115584;27;45499;-84
2021/12/09 08:43:23;;;;;;;;;6.75;6.75;;;;;;;;5114735;27;45477;-81
2021/12/09 08:45:49;;;;;;;;;10.25;9.25;;;;;;;;5114634;27;45336;-83
2021/12/09 08:48:15;;;;;;;;;9.00;9.00;;;;;;;;5114297;27;45297;-84
2021/12/09 08:50:43;;;;;;;;;7.25;7.25;;;;;;;;5114081;27;45351;-81
2021/12/09 08:53:10;;;;;;;;;8.00;7.25;;;;;;;;5096088;27;45306;-81
2021/12/09 08:55:36;;;;;;;;;7.25;7.25;;;;;;;;5114078;27;48050;-84
2021/12/09 08:58:01;;;;;;;;;7.75;6.75;;;;;;;;5114667;27;45418;-81
2021/12/09 09:00:28;;;;;;;;;6.33;5.67;;;;;;;;5114542;27;45353;-82
2021/12/09 09:02:53;;;;;;;;;9.50;9.25;;;;;;;;5096108;27;45409;-84
2021/12/09 09:05:19;;;;;;;;;6.00;6.00;;;;;;;;5113931;27;46457;-85
2021/12/09 09:07:45;;;;;;;;;8.33;7.33;;;;;;;;5114203;27;45452;-83
2021/12/09 09:10:11;;;;;;;;;9.00;9.00;;;;;;;;5114445;27;45431;-84
2021/12/09 09:12:37;;;;;;;;;11.25;10.00;;;;;;;;5114355;27;45321;-84
2021/12/09 09:15:04;;;;;;;;;10.25;7.25;;;;;;;;5114671;27;45696;-85
2021/12/09 09:17:29;;;;;;;;;8.50;7.75;;;;;;;;5114731;27;45993;-81
2021/12/09 09:19:54;;;;;;;;;9.00;6.67;;;;;;;;5114068;27;45535;-84
2021/12/09 09:22:19;;;;;;;;;9.33;8.67;;;;;;;;5095496;27;45447;-81
2021/12/09 09:24:45;;;;;;;;;11.33;11.33;;;;;;;;5113821;27;46666;-82
2021/12/09 09:27:10;;;;;;;;;9.00;7.67;;;;;;;;5095476;27;45590;-84
2021/12/09 09:29:37;;;;;;;;;9.67;9.00;;;;;;;;5114483;27;45433;-84
2021/12/09 09:32:04;;;;;;;;;5.50;5.25;;;;;;;;5095588;27;45348;-82
2021/12/09 09:34:29;;;;;;;;;7.00;6.00;;;;;;;;5114210;27;45478;-81
2021/12/09 09:36:54;;;;;;;;;7.00;6.00;;;;;;;;5095466;27;45733;-84
2021/12/09 09:39:22;;;;;;;;;10.67;9.00;;;;;;;;5114081;27;45378;-81
2021/12/09 09:41:56;;;;;;;;;10.25;9.50;;;;;;;;5114014;27;45319;-84
2021/12/09 09:44:27;;;;;;;;;10.75;10.00;;;;;;;;5095364;27;47959;-80
2021/12/09 09:46:55;;;;;;;;;7.00;7.00;;;;;;;;5114541;27;45636;-83
2021/12/09 09:49:21;;;;;;;;;10.25;9.00;;;;;;;;5113791;27;45442;-81
2021/12/09 09:51:46;;;;;;;;;12.50;10.00;;;;;;;;5094706;27;45512;-81
2021/12/09 09:54:11;;;;;;;;;8.33;7.00;;;;;;;;5113947;27;46555;-81
2021/12/09 09:56:41;;;;;;;;;9.75;9.00;;;;;;;;5113766;27;45653;-82
2021/12/09 09:59:07;;;;;;;;;9.25;8.25;;;;;;;;5114048;27;45486;-84
2021/12/09 10:01:34;;;;;;;;;10.50;8.50;;;;;;;;5095254;27;45670;-83
2021/12/09 10:04:10;;;;;;;;;14.00;13.25;;;;;;;;5113494;27;45529;-82
2021/12/09 10:06:36;;;;;;;;;11.00;9.00;;;;;;;;5094890;27;45736;-81
2021/12/09 10:09:02;;;;;;;;;15.50;14.25;;;;;;;;5113656;27;45366;-83
2021/12/09 10:11:27;;;;;;;;;14.50;13.00;;;;;;;;5094998;27;45521;-82
2021/12/09 10:13:52;;;;;;;;;8.33;8.33;;;;;;;;5095154;27;47278;-81
2021/12/09 10:16:22;;;;;;;;;6.67;6.00;;;;;;;;5113482;27;45558;-83
2021/12/09 10:18:49;;;;;;;;;6.00;6.00;;;;;;;;5113838;27;45456;-82
2021/12/09 10:21:25;;;;;;;;;3.50;3.00;;;;;;;;5094761;27;45527;-82
2021/12/09 10:23:58;;;;;;;;;5.50;4.00;;;;;;;;5096814;27;47186;-81
2021/12/09 10:26:26;;;;;;;;;6.75;6.00;;;;;;;;5116966;27;45716;-82
2021/12/09 10:28:53;;;;;;;;;7.25;7.00;;;;;;;;5116986;27;45339;-80
2021/12/09 10:31:20;;;;;;;;;7.75;6.50;;;;;;;;5117504;27;45783;-82
2021/12/09 10:34:20;;;;;;;;;6.75;6.75;;;;;;;;5117015;27;45605;-81
2021/12/09 10:36:47;;;;;;;;;10.75;9.25;;;;;;;;5089929;27;45899;-81
2021/12/09 10:39:23;;;;;;;;;8.25;7.50;;;;;;;;5116734;27;45553;-84
2021/12/09 10:41:49;;;;;;;;;6.75;6.50;;;;;;;;5117430;27;45610;-81
2021/12/09 10:44:14;;;;;;;;;8.75;6.00;;;;;;;;5098051;27;47708;-84
2021/12/09 10:46:53;;;;;;;;;6.50;6.50;;;;;;;;5116536;27;45437;-81
2021/12/09 10:49:19;;;;;;;;;7.75;7.75;;;;;;;;5116586;27;45330;-82
2021/12/09 10:51:59;;;;;;;;;8.00;6.50;;;;;;;;5094532;27;45715;-83
2021/12/09 10:54:35;;;;;;;;;7.00;5.00;;;;;;;;5094657;27;46556;-82
2021/12/09 10:57:18;;;;;;;;;8.00;7.00;;;;;;;;5095776;27;45670;-84
2021/12/09 10:59:44;;;;;;;;;6.75;6.75;;;;;;;;5096044;27;45344;-83
2021/12/09 11:02:09;;;;;;;;;12.00;9.67;;;;;;;;5094248;27;45675;-82
2021/12/09 11:04:34;;;;;;;;;8.00;7.50;;;;;;;;5095641;27;46358;-84
2021/12/09 11:07:17;;;;;;;;;6.67;6.00;;;;;;;;5095676;27;45303;-85
2021/12/09 11:09:42;;;;;;;;;4.50;3.25;;;;;;;;5094473;27;45467;-84
2021/12/09 11:12:24;;;;;;;;;6.00;3.00;;;;;;;;5095668;27;45391;-84
2021/12/09 11:14:56;;;;;;;;;6.00;5.00;;;;;;;;5096113;27;46288;-86
2021/12/09 11:17:32;;;;;;;;;5.50;5.25;;;;;;;;5095667;27;45841;-82
2021/12/09 11:19:58;;;;;;;;;7.75;6.00;;;;;;;;5095324;27;45460;-82
2021/12/09 11:22:29;;;;;;;;;8.75;7.00;;;;;;;;5095495;27;45528;-83
2021/12/09 11:24:59;;;;;;;;;6.50;5.25;;;;;;;;5094366;27;48259;-84
2021/12/09 11:27:26;;;;;;;;;7.25;5.00;;;;;;;;5095517;27;46061;-83
2021/12/09 11:29:56;;;;;;;;;8.00;6.00;;;;;;;;5095740;27;45449;-81
2021/12/09 11:32:44;;;;;;;;;6.25;5.75;;;;;;;;5095404;27;45431;-81
2021/12/09 11:35:24;;;;;;;;;7.25;6.75;;;;;;;;5094272;27;46328;-81
2021/12/09 11:40:40;;;;;;;;;6.00;6.00;;;;;;;;5095364;27;45401;-83
2021/12/09 11:43:07;;;;;;;;;8.00;7.00;;;;;;;;5095338;27;45279;-84
2021/12/09 11:45:34;;;;;;;;;6.00;5.75;;;;;;;;5094988;27;45491;-85
2021/12/09 11:48:01;;;;;;;;;8.50;7.00;;;;;;;;5094835;27;45286;-81
2021/12/09 11:50:28;;;;;;;;;11.50;7.75;;;;;;;;5102291;27;45538;-81
2021/12/09 11:52:54;;;;;;;;;7.50;6.75;;;;;;;;5115639;27;45546;-86
2021/12/09 11:55:24;;;;;;;;;4.75;4.25;;;;;;;;5115405;27;45700;-82
2021/12/09 11:58:01;;;;;;;;;7.25;3.75;;;;;;;;5096952;27;45814;-82
2021/12/09 12:15:16;;;;;;;;;5.00;5.00;;;;;;;;5101039;27;45419;-81
2021/12/09 12:21:19;;;;;;;;;6.50;6.00;;;;;;;;5050535;28;45488;-82
2021/12/09 12:26:46;;;;;;;;;4.00;3.25;;;;;;;;5115092;27;45403;-83
2021/12/09 12:32:05;;;;;;;;;7.75;6.00;;;;;;;;5114702;27;45913;-85
2021/12/09 12:37:21;;;;;;;;;6.50;6.00;;;;;;;;5114823;27;45464;-85
2021/12/09 12:40:01;;;;;;;;;6.75;6.00;;;;;;;;5114638;27;45510;-85
2021/12/09 12:42:47;;;;;;;;;7.00;6.25;;;;;;;;5113978;27;67880;-82
2021/12/09 12:45:34;;;;;;;;;4.50;4.50;;;;;;;;5114169;27;45464;-85
2021/12/09 12:50:33;;;;;;;;;3.00;3.00;;;;;;;;5113775;27;45410;-81
2021/12/09 12:53:18;;;;;;;;;3.25;3.00;;;;;;;;5114620;27;45409;-83
2021/12/09 12:56:03;;;;;;;;;5.75;4.00;;;;;;;;5114598;27;45637;-82
2021/12/09 12:58:28;;;;;;;;;4.75;3.75;;;;;;;;5096041;27;45407;-84
2021/12/09 13:00:54;;;;;;;;;3.67;3.00;;;;;;;;5096017;27;46875;-82
2021/12/09 13:03:32;;;;;;;;;4.00;4.00;;;;;;;;5096024;27;45576;-81
2021/12/09 13:06:14;;;;;;;;;4.50;3.50;;;;;;;;5114292;27;45396;-81
2021/12/09 13:08:58;;;;;;;;;4.50;3.50;;;;;;;;5095775;27;45404;-83
2021/12/09 13:12:00;;;;;;;;;3.50;3.00;;;;;;;;5095782;27;47955;-85
2021/12/09 13:14:30;;;;;;;;;7.00;4.75;;;;;;;;5088583;27;45360;-83
2021/12/09 13:17:10;;;;;;;;;8.00;7.00;;;;;;;;5095963;27;45446;-84
2021/12/09 13:20:05;;;;;;;;;4.50;4.00;;;;;;;;5114389;27;45595;-86
2021/12/09 13:22:27;;;;;;;;;7.50;7.50;;;;;;;;5113861;27;46596;-82
2021/12/09 13:25:01;;;;;;;;;4.00;4.00;;;;;;;;5095750;27;45393;-85
2021/12/09 13:35:31;;;;;;;;;7.25;4.75;;;;;;;;5115160;27;45895;-85
2021/12/09 13:45:53;;;;;;;;;4.75;4.50;;;;;;;;5114672;27;45560;-81
2021/12/09 13:46:36;;;;;;;;;4.50;4.00;;;;;;;;5114026;27;45479;-83
2021/12/09 13:49:07;;;;;;;;;4.00;2.75;;;;;;;;5114544;27;45429;-81
2021/12/09 13:56:46;;;;;;;;;8.25;8.25;;;;;;;;5114437;27;45871;-83
2021/12/09 13:59:15;;;;;;;;;8.50;4.25;;;;;;;;5098956;27;45344;-82
2021/12/09 14:01:40;;;;;;;;;6.75;4.75;;;;;;;;5117677;27;45471;-85
2021/12/09 14:04:09;;;;;;;;;6.33;6.33;;;;;;;;5098699;27;47128;-85
2021/12/09 14:06:34;;;;;;;;;5.50;5.00;;;;;;;;5116972;27;45419;-82
2021/12/09 14:08:59;;;;;;;;;8.67;7.00;;;;;;;;5117402;27;45312;-81
2021/12/09 14:11:33;;;;;;;;;8.75;7.75;;;;;;;;5117227;27;45346;-81
2021/12/09 14:14:05;;;;;;;;;4.00;4.00;;;;;;;;5117125;27;45587;-83
2021/12/09 14:16:44;;;;;;;;;7.00;7.00;;;;;;;;5098883;27;45530;-80
2021/12/09 14:21:35;;;;;;;;;9.67;6.33;;;;;;;;5116627;27;45530;-82
2021/12/09 14:24:08;;;;;;;;;5.50;5.50;;;;;;;;5098219;27;47966;-81
2021/12/09 14:26:34;;;;;;;;;4.00;4.00;;;;;;;;5117198;27;45456;-82
2021/12/09 14:29:00;;;;;;;;;8.00;7.00;;;;;;;;5116888;27;45431;-83
2021/12/09 14:31:25;;;;;;;;;4.00;4.00;;;;;;;;5117155;27;45500;-83
2021/12/09 14:33:50;;;;;;;;;8.67;7.33;;;;;;;;5098154;27;48011;-85
2021/12/09 14:36:17;;;;;;;;;7.00;6.00;;;;;;;;5098124;27;45333;-84
2021/12/09 14:38:43;;;;;;;;;7.25;7.25;;;;;;;;5116823;27;45293;-85
2021/12/09 14:41:18;;;;;;;;;5.25;5.25;;;;;;;;5116870;27;45416;-82
2021/12/09 14:43:46;;;;;;;;;3.00;3.00;;;;;;;;5098203;27;46592;-84
2021/12/09 14:46:18;;;;;;;;;3.75;3.50;;;;;;;;5098060;27;45921;-85
2021/12/09 14:48:45;;;;;;;;;4.00;3.00;;;;;;;;5116631;27;45432;-84
2021/12/09 14:51:14;;;;;;;;;4.00;4.00;;;;;;;;5097460;27;45451;-85
2021/12/09 14:53:50;;;;;;;;;3.75;3.00;;;;;;;;5097915;27;47448;-82
2021/12/09 14:56:27;;;;;;;;;4.00;3.25;;;;;;;;5111538;27;45342;-84
2021/12/09 14:58:53;;;;;;;;;3.00;3.00;;;;;;;;5116925;27;45302;-84
2021/12/09 15:01:22;;;;;;;;;6.00;6.00;;;;;;;;5116652;27;45278;-85
2021/12/09 15:03:59;;;;;;;;;7.00;4.50;;;;;;;;5097790;27;47916;-85
2021/12/09 15:06:31;;;;;;;;;3.75;3.75;;;;;;;;5097517;27;45709;-85
2021/12/09 15:09:12;;;;;;;;;5.75;5.25;;;;;;;;5115606;27;45489;-85
2021/12/09 15:11:39;;;;;;;;;4.50;3.50;;;;;;;;5097857;27;45453;-85
2021/12/09 15:14:10;;;;;;;;;6.00;6.00;;;;;;;;5097601;27;47394;-84
2021/12/09 15:16:36;;;;;;;;;3.75;3.75;;;;;;;;5116425;27;45821;-84
2021/12/09 15:19:13;;;;;;;;;6.50;5.00;;;;;;;;5097310;27;45384;-81
2021/12/09 15:21:39;;;;;;;;;8.00;5.50;;;;;;;;5116329;27;45838;-81
2021/12/09 15:24:11;;;;;;;;;5.50;4.00;;;;;;;;5116077;27;45524;-85
2021/12/09 15:26:39;;;;;;;;;5.00;4.00;;;;;;;;5097495;27;45598;-85
2021/12/09 15:29:15;;;;;;;;;8.00;6.75;;;;;;;;5116136;27;45243;-86
2021/12/09 15:31:41;;;;;;;;;6.25;6.25;;;;;;;;5116058;27;45417;-85
2021/12/09 15:34:10;;;;;;;;;7.00;6.25;;;;;;;;5115750;27;46302;-86
2021/12/09 15:36:36;;;;;;;;;6.25;6.25;;;;;;;;5096981;27;45888;-82
2021/12/09 15:39:15;;;;;;;;;8.25;7.00;;;;;;;;5116060;27;45352;-81
2021/12/09 15:41:42;;;;;;;;;6.75;6.00;;;;;;;;5097529;27;45401;-84
2021/12/09 15:44:13;;;;;;;;;11.75;8.00;;;;;;;;5097340;27;47266;-84
2021/12/09 15:46:45;;;;;;;;;12.75;8.75;;;;;;;;5115814;27;45295;-82